Terminal Aerodrome Forecast
Issued by NWS

Home | Current Version | Previous Version | Text Only | Print | Product List | Glossary On
Versions: 1 2 3 4 5 6 7 8 9 10 11 12 13 14 15 16 17 18 19 20 21 22 23 24 25 26 27 28 29 30
024
FTUS46 KMTR 250543
TAFSFO
TAF
KSFO 250543Z 2506/2612 24008KT P6SM VCSH FEW015 BKN020 OVC045
     FM251000 22007KT P6SM VCSH FEW015 BKN025 OVC040
     FM251500 20005KT P6SM VCSH SCT025 BKN035 BKN050
     FM252000 20007KT P6SM VCSH BKN035 BKN050
     FM252300 26009KT P6SM SCT035 BKN050
     FM260500 25006KT P6SM BKN030=

USA.gov is the U.S. government's official web portal to all federal, state and local government web resources and services.